Time;durP1;ratioP1;P1;durP2;ratioP2;P2;SDS_P1;SDS_P2;PMS_P1;PMS_P2;Temp;Humidity;BMP_temperature;BMP_pressure;BME280_temperature;BME280_humidity;BME280_pressure;Samples;Min_cycle;Max_cycle;Signal;HPM_P1;HPM_P2
2024/01/09 00:00:16;;;;;;;0.40;0.40;;;;;;;-4.47;100.00;101339.13;5028212;28;20040;-77
2024/01/09 00:02:41;;;;;;;1.13;1.13;;;;;;;-4.96;100.00;101233.94;5027272;28;20080;-76
2024/01/09 00:05:07;;;;;;;0.30;0.30;;;;;;;-4.92;100.00;101255.50;5022615;28;20084;-78
2024/01/09 00:07:33;;;;;;;0.70;0.70;;;;;;;-5.03;100.00;101241.00;5022697;28;20140;-76
2024/01/09 00:09:58;;;;;;;1.77;1.67;;;;;;;-4.43;100.00;101333.44;5020844;28;20056;-78
2024/01/09 00:12:24;;;;;;;0.40;0.40;;;;;;;-4.99;100.00;101251.59;5018872;28;20061;-76
2024/01/09 00:14:49;;;;;;;0.40;0.40;;;;;;;-4.95;100.00;101367.88;5020951;28;20497;-77
2024/01/09 00:17:15;;;;;;;0.40;0.40;;;;;;;-4.59;100.00;101349.34;5022816;28;20660;-76
2024/01/09 00:19:40;;;;;;;0.50;0.50;;;;;;;-4.93;100.00;101358.66;5023792;28;20074;-78
2024/01/09 00:22:06;;;;;;;0.47;0.47;;;;;;;-4.81;100.00;101384.31;5032228;28;20065;-78
2024/01/09 00:24:33;;;;;;;7.68;7.05;;;;;;;-5.40;100.00;101297.03;5004552;28;20075;-76
2024/01/09 00:26:59;;;;;;;0.57;0.50;;;;;;;-5.02;100.00;101361.38;5007471;28;20445;-79
2024/01/09 00:29:25;;;;;;;0.40;0.40;;;;;;;-4.76;100.00;101378.75;5025558;28;20128;-77
2024/01/09 00:31:50;;;;;;;1.70;1.60;;;;;;;-4.71;100.00;101402.16;5022321;28;20515;-77
2024/01/09 00:34:16;;;;;;;0.30;0.30;;;;;;;-4.53;100.00;101407.78;5021064;28;20045;-79
2024/01/09 00:36:44;;;;;;;0.40;0.40;;;;;;;-4.54;100.00;101414.59;5020541;28;20863;-79
2024/01/09 00:39:11;;;;;;;3.05;1.60;;;;;;;-4.97;100.00;101303.78;5019862;28;20057;-78
2024/01/09 00:41:38;;;;;;;1.42;1.00;;;;;;;-4.99;100.00;101391.44;5031522;28;20041;-79
2024/01/09 00:44:03;;;;;;;1.17;1.17;;;;;;;-4.73;100.00;101391.81;5034952;28;20116;-79
2024/01/09 00:46:29;;;;;;;0.75;0.75;;;;;;;-5.65;100.00;101291.66;5038637;28;20115;-78
2024/01/09 00:48:55;;;;;;;0.40;0.40;;;;;;;-4.75;100.00;101382.22;5024533;28;20684;-77
2024/01/09 00:51:21;;;;;;;0.40;0.40;;;;;;;-4.58;100.00;101404.88;5031929;28;20049;-78
2024/01/09 00:53:46;;;;;;;0.40;0.40;;;;;;;-4.43;100.00;101411.94;5015045;28;20258;-79
2024/01/09 00:56:12;;;;;;;0.40;0.40;;;;;;;-5.00;100.00;101297.53;5025179;28;20038;-78
2024/01/09 00:58:37;;;;;;;0.40;0.40;;;;;;;-4.97;100.00;101411.25;5024740;28;20039;-78
2024/01/09 01:01:04;;;;;;;0.40;0.40;;;;;;;-4.60;100.00;101421.78;5033308;28;20045;-78
2024/01/09 01:03:29;;;;;;;1.73;1.63;;;;;;;-5.13;100.00;101377.56;5002257;28;20087;-78
2024/01/09 01:05:55;;;;;;;6.22;5.88;;;;;;;-5.16;100.00;101293.81;5018593;28;20589;-79
2024/01/09 01:08:21;;;;;;;0.40;0.40;;;;;;;-4.88;100.00;101330.06;5016627;28;20179;-79
2024/01/09 01:10:49;;;;;;;0.40;0.40;;;;;;;-4.47;100.00;101413.41;5000967;28;20092;-80
2024/01/09 01:13:15;;;;;;;0.93;0.93;;;;;;;-5.16;100.00;101311.72;5021370;28;20049;-78
2024/01/09 01:15:40;;;;;;;1.75;1.65;;;;;;;-4.42;100.00;101426.56;5022934;28;20068;-77
2024/01/09 01:18:06;;;;;;;0.40;0.40;;;;;;;-4.72;100.00;101423.41;5021961;28;20111;-77
2024/01/09 01:20:31;;;;;;;0.40;0.40;;;;;;;-5.10;100.00;101324.09;5025254;28;20135;-77
2024/01/09 01:22:57;;;;;;;0.50;0.50;;;;;;;-5.55;100.00;101319.72;5018422;28;20516;-78
2024/01/09 01:25:22;;;;;;;0.80;0.80;;;;;;;-4.75;100.00;101392.47;5018631;28;20033;-80
2024/01/09 01:27:48;;;;;;;0.40;0.40;;;;;;;-4.59;100.00;101415.00;5020318;28;20091;-79
2024/01/09 01:30:14;;;;;;;0.52;0.52;;;;;;;-4.80;100.00;101346.03;5018566;28;20050;-78
2024/01/09 01:32:39;;;;;;;0.30;0.30;;;;;;;-4.87;100.00;101354.00;5016594;28;20088;-79
2024/01/09 01:35:05;;;;;;;0.40;0.40;;;;;;;-5.24;100.00;101325.59;5006209;28;20053;-78
2024/01/09 01:37:31;;;;;;;0.40;0.40;;;;;;;-4.29;100.00;101449.75;5021126;28;20037;-79
2024/01/09 01:39:58;;;;;;;0.40;0.40;;;;;;;-4.90;100.00;101334.19;5024344;28;20045;-78
2024/01/09 01:42:24;;;;;;;0.50;0.50;;;;;;;-4.58;100.00;101445.84;5002126;28;20053;-78
2024/01/09 01:44:50;;;;;;;0.40;0.40;;;;;;;-4.88;100.00;101347.09;5021652;28;20716;-77
2024/01/09 01:47:17;;;;;;;0.65;0.65;;;;;;;-4.92;100.00;101333.19;5024973;28;20050;-79
2024/01/09 01:49:43;;;;;;;1.52;1.42;;;;;;;-4.21;100.00;101458.94;5027237;28;20436;-76
2024/01/09 01:52:11;;;;;;;0.85;0.85;;;;;;;-4.20;100.00;101447.00;5029369;28;20132;-77
2024/01/09 01:54:39;;;;;;;0.40;0.40;;;;;;;-4.19;100.00;101453.91;5033367;28;20106;-77
2024/01/09 01:57:06;;;;;;;0.50;0.50;;;;;;;-4.78;100.00;101361.50;5007798;28;20051;-77
2024/01/09 01:59:33;;;;;;;9.40;5.18;;;;;;;-4.90;100.00;101372.56;5005506;28;20505;-77
2024/01/09 02:02:02;;;;;;;0.40;0.32;;;;;;;-5.08;100.00;101320.00;5025448;28;20029;-76
2024/01/09 02:04:28;;;;;;;0.77;0.77;;;;;;;-5.04;100.00;101344.13;5027322;28;20025;-76
2024/01/09 02:06:56;;;;;;;0.82;0.82;;;;;;;-4.73;100.00;101389.25;5025308;28;20053;-77
2024/01/09 02:09:21;;;;;;;0.30;0.30;;;;;;;-4.22;100.00;101433.16;5027775;28;20048;-78
2024/01/09 02:11:49;;;;;;;0.47;0.47;;;;;;;-5.34;100.00;101347.00;5025162;28;20041;-77
2024/01/09 02:14:15;;;;;;;0.50;0.50;;;;;;;-4.97;100.00;101454.75;5026096;28;20079;-77
2024/01/09 02:16:41;;;;;;;0.50;0.50;;;;;;;-4.55;100.00;101451.19;5028051;28;20037;-77
2024/01/09 02:19:06;;;;;;;0.40;0.40;;;;;;;-5.05;100.00;101357.72;5026537;28;20591;-80
2024/01/09 02:21:33;;;;;;;0.47;0.47;;;;;;;-4.90;100.00;101343.53;5033634;28;21887;-78
2024/01/09 02:23:59;;;;;;;0.32;0.32;;;;;;;-4.21;100.00;101458.94;5023753;28;20053;-77
2024/01/09 02:26:30;;;;;;;0.40;0.40;;;;;;;-5.23;100.00;101317.13;5007981;28;20065;-77
2024/01/09 02:29:01;;;;;;;0.77;0.77;;;;;;;-4.89;100.00;101342.78;5009944;28;20029;-78
2024/01/09 02:31:27;;;;;;;0.73;0.73;;;;;;;-4.97;100.00;101465.00;5030436;28;20088;-79
2024/01/09 02:33:54;;;;;;;0.40;0.40;;;;;;;-5.41;100.00;101319.16;5033672;28;20049;-77
2024/01/09 02:36:19;;;;;;;0.40;0.40;;;;;;;-4.91;100.00;101465.50;5027784;28;20600;-78
2024/01/09 02:38:45;;;;;;;4.30;4.13;;;;;;;-4.92;100.00;101425.34;5015641;28;20132;-78
2024/01/09 02:41:10;;;;;;;0.50;0.50;;;;;;;-5.06;100.00;101478.72;5028160;28;20041;-79
2024/01/09 02:43:36;;;;;;;0.60;0.60;;;;;;;-4.46;100.00;101492.00;5023179;28;20056;-76
2024/01/09 02:46:01;;;;;;;0.50;0.50;;;;;;;-4.97;100.00;101448.75;5024318;28;20072;-78
2024/01/09 02:48:27;;;;;;;0.40;0.40;;;;;;;-4.68;100.00;101466.41;5028390;28;20137;-78
2024/01/09 02:50:52;;;;;;;1.40;1.35;;;;;;;-4.75;100.00;101462.47;5020347;28;20044;-79
2024/01/09 02:53:18;;;;;;;0.50;0.50;;;;;;;-5.31;100.00;101456.31;5022959;28;20045;-78
2024/01/09 02:55:43;;;;;;;0.40;0.40;;;;;;;-5.21;100.00;101451.16;5030586;28;20048;-77
2024/01/09 02:58:09;;;;;;;1.50;1.40;;;;;;;-4.94;100.00;101477.13;5019497;28;20641;-77
2024/01/09 03:00:34;;;;;;;0.75;0.75;;;;;;;-5.53;100.00;101372.75;5026074;28;20500;-76
2024/01/09 03:03:00;;;;;;;0.60;0.60;;;;;;;-4.67;100.00;101479.31;5024770;28;20071;-79
2024/01/09 03:05:25;;;;;;;0.55;0.55;;;;;;;-5.22;100.00;101418.69;5025316;28;20061;-78
2024/01/09 03:07:51;;;;;;;0.40;0.40;;;;;;;-4.65;100.00;101468.31;5041127;28;20037;-76
2024/01/09 03:10:16;;;;;;;0.40;0.40;;;;;;;-5.64;100.00;101380.34;5028391;28;20045;-78
2024/01/09 03:12:42;;;;;;;10.50;9.93;;;;;;;-5.27;100.00;101480.47;5025653;28;20049;-78
2024/01/09 03:15:09;;;;;;;0.30;0.30;;;;;;;-5.87;100.00;101379.41;5027737;28;20138;-78
2024/01/09 03:17:34;;;;;;;0.50;0.50;;;;;;;-5.80;100.00;101381.69;5024253;28;20080;-78
2024/01/09 03:20:00;;;;;;;6.50;6.22;;;;;;;-5.09;100.00;101504.97;5020804;28;20064;-79
2024/01/09 03:22:26;;;;;;;1.33;1.23;;;;;;;-4.79;100.00;101474.91;5027954;28;20203;-76
2024/01/09 03:24:51;;;;;;;0.50;0.50;;;;;;;-4.83;100.00;101478.88;5034390;28;20118;-77
2024/01/09 03:27:17;;;;;;;0.50;0.50;;;;;;;-5.81;100.00;101417.31;5029455;28;20477;-78
2024/01/09 03:29:42;;;;;;;1.60;1.52;;;;;;;-5.60;100.00;101377.25;5002306;28;20216;-78
2024/01/09 03:32:08;;;;;;;0.40;0.40;;;;;;;-5.08;100.00;101453.03;5022926;28;20057;-77
2024/01/09 03:34:34;;;;;;;0.43;0.43;;;;;;;-4.80;100.00;101483.34;5035077;28;20664;-77
2024/01/09 03:36:59;;;;;;;0.40;0.40;;;;;;;-5.25;100.00;101530.97;5025066;28;20391;-77
2024/01/09 03:39:25;;;;;;;0.40;0.40;;;;;;;-4.86;100.00;101519.59;5010265;28;20045;-79
2024/01/09 03:41:52;;;;;;;22.10;20.35;;;;;;;-4.93;100.00;101496.84;5022361;28;20111;-80
2024/01/09 03:44:17;;;;;;;4.88;4.68;;;;;;;-5.54;100.00;101434.91;5020724;28;20085;-77
2024/01/09 03:46:43;;;;;;;0.40;0.40;;;;;;;-5.68;100.00;101422.66;5019389;28;20134;-79
2024/01/09 03:49:09;;;;;;;5.55;4.22;;;;;;;-5.66;100.00;101423.69;5031522;28;20408;-76
2024/01/09 03:51:35;;;;;;;3.17;3.03;;;;;;;-5.28;100.00;101428.41;5028416;28;20038;-78
2024/01/09 03:54:00;;;;;;;0.50;0.45;;;;;;;-4.47;100.00;101539.78;5027559;28;20049;-77
2024/01/09 03:56:26;;;;;;;0.40;0.40;;;;;;;-5.22;100.00;101436.59;5027717;28;20421;-78
2024/01/09 03:58:52;;;;;;;0.40;0.40;;;;;;;-4.97;100.00;101544.31;5021819;28;20860;-78
2024/01/09 04:01:18;;;;;;;0.40;0.40;;;;;;;-4.83;100.00;101491.69;5028287;28;20037;-78
2024/01/09 04:03:45;;;;;;;0.93;0.90;;;;;;;-6.04;100.00;101324.41;5020862;28;20166;-79
2024/01/09 04:06:11;;;;;;;0.40;0.40;;;;;;;-4.70;100.00;101504.69;5018261;28;20060;-77
2024/01/09 04:08:36;;;;;;;0.77;0.77;;;;;;;-4.93;100.00;101517.34;4998980;28;20041;-77
2024/01/09 04:11:05;;;;;;;0.40;0.40;;;;;;;-4.61;100.00;101535.25;5017929;28;20064;-77
2024/01/09 04:13:32;;;;;;;0.40;0.40;;;;;;;-4.59;100.00;101556.75;5020774;28;20037;-77
2024/01/09 04:15:57;;;;;;;0.47;0.47;;;;;;;-4.91;100.00;101528.59;5025057;28;20057;-78
2024/01/09 04:18:23;;;;;;;1.95;1.85;;;;;;;-5.02;100.00;101525.16;5014252;28;20064;-79
2024/01/09 04:20:48;;;;;;;0.40;0.40;;;;;;;-5.53;100.00;101451.13;5020428;28;20041;-77
2024/01/09 04:23:14;;;;;;;1.75;1.65;;;;;;;-4.47;100.00;101559.38;5016064;28;20079;-76
2024/01/09 04:25:41;;;;;;;0.40;0.40;;;;;;;-5.58;100.00;101431.97;5037632;28;20908;-77
2024/01/09 04:28:07;;;;;;;0.40;0.38;;;;;;;-4.82;100.00;101475.56;5020114;28;20040;-78
2024/01/09 04:30:32;;;;;;;0.60;0.60;;;;;;;-4.73;100.00;101570.09;4990697;28;20077;-78
2024/01/09 04:32:58;;;;;;;7.85;7.45;;;;;;;-4.56;100.00;101548.41;5000443;28;20209;-78
2024/01/09 04:35:24;;;;;;;0.90;0.90;;;;;;;-4.81;100.00;101592.53;5019790;28;20057;-79
2024/01/09 04:37:49;;;;;;;0.47;0.47;;;;;;;-5.45;100.00;101474.78;5004911;28;20029;-76
2024/01/09 04:40:15;;;;;;;10.38;9.85;;;;;;;-4.94;100.00;101488.28;5021346;28;20246;-78
2024/01/09 04:42:40;;;;;;;0.40;0.38;;;;;;;-5.11;100.00;101563.69;5014162;28;20059;-77
2024/01/09 04:45:06;;;;;;;0.40;0.40;;;;;;;-4.65;100.00;101594.66;5016877;28;20920;-79
2024/01/09 04:47:32;;;;;;;0.30;0.30;;;;;;;-4.37;100.00;101591.75;5007044;28;20045;-79
2024/01/09 04:49:57;;;;;;;4.53;4.32;;;;;;;-5.55;100.00;101465.44;5026493;28;20034;-78
2024/01/09 04:52:23;;;;;;;1.02;1.02;;;;;;;-5.65;100.00;101451.03;5024314;28;20076;-78
2024/01/09 04:54:49;;;;;;;0.40;0.40;;;;;;;-4.91;100.00;101579.78;5007831;28;20056;-79
2024/01/09 04:57:14;;;;;;;0.38;0.38;;;;;;;-5.61;100.00;101476.06;5014189;28;20080;-78
2024/01/09 04:59:46;;;;;;;0.50;0.50;;;;;;;-5.17;100.00;101580.22;5019985;28;20079;-77
2024/01/09 05:02:11;;;;;;;0.30;0.30;;;;;;;-4.99;100.00;101601.28;5002661;28;20060;-77
2024/01/09 05:04:38;;;;;;;0.30;0.30;;;;;;;-5.33;100.00;101479.22;5032783;28;20412;-77
2024/01/09 05:07:03;;;;;;;0.50;0.50;;;;;;;-4.57;100.00;101601.28;5013475;28;20064;-78
2024/01/09 05:09:29;;;;;;;0.40;0.40;;;;;;;-4.93;100.00;101568.53;5034297;28;20045;-77
2024/01/09 05:11:54;;;;;;;0.43;0.43;;;;;;;-4.97;100.00;101608.31;5024774;28;20076;-78
2024/01/09 05:14:20;;;;;;;0.55;0.55;;;;;;;-5.46;100.00;101489.22;5026574;28;20322;-78
2024/01/09 05:16:45;;;;;;;0.40;0.40;;;;;;;-4.92;100.00;101618.91;5027461;28;20049;-77
2024/01/09 05:19:11;;;;;;;0.40;0.40;;;;;;;-4.73;100.00;101547.06;4980065;28;20076;-80
2024/01/09 05:21:36;;;;;;;0.50;0.50;;;;;;;-5.15;100.00;101564.22;5023898;28;20104;-79
2024/01/09 05:24:02;;;;;;;0.40;0.40;;;;;;;-4.69;100.00;101580.72;5034914;28;20084;-77
2024/01/09 05:26:28;;;;;;;0.40;0.40;;;;;;;-4.79;100.00;101597.78;5033090;28;20324;-79
2024/01/09 05:28:53;;;;;;;0.30;0.30;;;;;;;-4.72;100.00;101618.88;5035066;28;20091;-77
2024/01/09 05:31:20;;;;;;;0.50;0.50;;;;;;;-4.43;100.00;101611.72;5021201;28;20063;-77
2024/01/09 05:33:47;;;;;;;0.40;0.40;;;;;;;-5.52;100.00;101465.72;5028861;28;20089;-77
2024/01/09 05:36:13;;;;;;;0.30;0.30;;;;;;;-5.29;100.00;101521.28;5039434;28;20057;-78
2024/01/09 05:38:39;;;;;;;0.40;0.40;;;;;;;-4.71;100.00;101658.16;5022993;28;20045;-78
2024/01/09 05:41:04;;;;;;;0.50;0.50;;;;;;;-4.65;100.00;101656.13;5022012;28;20044;-78
2024/01/09 05:43:30;;;;;;;0.40;0.40;;;;;;;-4.98;100.00;101616.78;5025900;28;20553;-77
2024/01/09 05:45:56;;;;;;;0.40;0.40;;;;;;;-5.69;100.00;101519.66;5019481;28;20079;-77
2024/01/09 05:48:21;;;;;;;0.32;0.30;;;;;;;-4.70;100.00;101685.59;5034849;28;20053;-77
2024/01/09 05:50:47;;;;;;;0.40;0.40;;;;;;;-5.36;100.00;101526.66;5014004;28;20128;-75
2024/01/09 05:53:12;;;;;;;1.00;1.00;;;;;;;-5.57;100.00;101559.06;5027753;28;20131;-77
2024/01/09 05:55:38;;;;;;;0.30;0.30;;;;;;;-4.59;100.00;101699.25;5024064;28;20030;-77
2024/01/09 05:58:03;;;;;;;0.40;0.40;;;;;;;-4.86;100.00;101660.38;5000113;28;20780;-76
2024/01/09 06:00:30;;;;;;;0.40;0.30;;;;;;;-5.62;100.00;101589.34;5022165;28;20048;-76
2024/01/09 06:02:55;;;;;;;1.50;1.40;;;;;;;-5.16;100.00;101698.03;5025251;28;20045;-77
2024/01/09 06:05:22;;;;;;;0.82;0.82;;;;;;;-5.39;100.00;101692.63;5020351;28;20497;-76
2024/01/09 06:07:48;;;;;;;0.40;0.38;;;;;;;-4.98;100.00;101734.50;5026979;28;20465;-77
2024/01/09 06:10:14;;;;;;;0.50;0.50;;;;;;;-5.04;100.00;101713.50;5018968;28;20072;-78
2024/01/09 06:12:39;;;;;;;0.45;0.45;;;;;;;-5.16;100.00;101671.53;5025513;28;20133;-76
2024/01/09 06:15:05;;;;;;;0.30;0.30;;;;;;;-4.80;100.00;101712.09;5025720;28;20095;-76
2024/01/09 06:17:31;;;;;;;0.50;0.50;;;;;;;-4.38;100.00;101802.56;5024582;28;20045;-77
2024/01/09 06:19:57;;;;;;;0.40;0.40;;;;;;;-4.99;100.00;101675.50;5027545;28;20140;-76
2024/01/09 06:22:23;;;;;;;0.40;0.40;;;;;;;-4.27;100.00;101791.53;5035060;28;20041;-75
2024/01/09 06:24:48;;;;;;;0.30;0.30;;;;;;;-4.29;100.00;101798.19;5027964;28;20045;-77
2024/01/09 06:27:14;;;;;;;0.70;0.70;;;;;;;-4.70;100.00;101724.00;5031133;28;20053;-76
2024/01/09 06:29:41;;;;;;;0.40;0.40;;;;;;;-3.98;100.00;101818.63;5007745;28;20069;-76
2024/01/09 06:32:07;;;;;;;0.40;0.40;;;;;;;-4.49;100.00;101797.44;5031827;28;20090;-76
2024/01/09 06:34:35;;;;;;;0.40;0.40;;;;;;;-4.07;100.00;101839.28;5028084;28;20092;-75
2024/01/09 06:37:01;;;;;;;0.40;0.40;;;;;;;-4.53;100.00;101740.72;5037022;28;20568;-76
2024/01/09 06:39:26;;;;;;;0.95;0.95;;;;;;;-4.06;100.00;101829.13;5034498;28;20164;-76
2024/01/09 06:41:52;;;;;;;0.40;0.40;;;;;;;-4.31;100.00;101809.97;5035660;28;20148;-77
2024/01/09 06:44:17;;;;;;;0.40;0.40;;;;;;;-4.60;100.00;101844.31;5036123;28;20437;-77
2024/01/09 06:46:43;;;;;;;1.05;1.02;;;;;;;-4.47;100.00;101862.50;5026061;28;20033;-76
2024/01/09 06:49:08;;;;;;;2.45;2.35;;;;;;;-4.34;100.00;101838.78;5033312;28;20123;-76
2024/01/09 06:51:35;;;;;;;0.50;0.50;;;;;;;-4.55;100.00;101784.13;5026296;28;20737;-76
2024/01/09 06:54:00;;;;;;;0.40;0.40;;;;;;;-4.56;100.00;101848.94;5030478;28;20080;-76
2024/01/09 06:56:26;;;;;;;0.40;0.40;;;;;;;-4.82;100.00;101790.44;5033122;28;20072;-76
2024/01/09 06:58:52;;;;;;;0.50;0.50;;;;;;;-4.40;100.00;101883.50;5027013;28;20037;-76
2024/01/09 07:01:17;;;;;;;0.77;0.77;;;;;;;-4.33;100.00;101880.69;5035784;28;20037;-76
2024/01/09 07:03:44;;;;;;;0.40;0.40;;;;;;;-4.56;100.00;101809.63;5027320;28;20049;-76
2024/01/09 07:06:09;;;;;;;1.10;0.63;;;;;;;-4.24;100.00;101878.88;5025688;28;20057;-77
2024/01/09 07:08:35;;;;;;;0.40;0.40;;;;;;;-4.03;100.00;101890.94;5010361;28;20054;-76
2024/01/09 07:11:00;;;;;;;0.45;0.45;;;;;;;-3.99;100.00;101911.69;5034721;28;20029;-77
2024/01/09 07:13:26;;;;;;;1.75;1.65;;;;;;;-4.98;100.00;101882.03;5036039;28;20022;-75
2024/01/09 07:15:51;;;;;;;0.40;0.40;;;;;;;-5.12;100.00;101837.34;5030369;28;20045;-76
2024/01/09 07:18:17;;;;;;;0.43;0.43;;;;;;;-5.20;100.00;101835.78;5026176;28;20069;-77
2024/01/09 07:20:43;;;;;;;0.40;0.40;;;;;;;-5.04;100.00;101818.41;5032608;28;20501;-77
2024/01/09 07:23:10;;;;;;;0.55;0.55;;;;;;;-4.52;100.00;101860.31;5026565;28;20500;-77
2024/01/09 07:25:35;;;;;;;1.63;1.52;;;;;;;-5.20;100.00;101813.66;5029087;28;20033;-77
2024/01/09 07:28:02;;;;;;;0.40;0.40;;;;;;;-4.97;100.00;101807.94;5029962;28;20150;-78
2024/01/09 07:30:27;;;;;;;0.40;0.40;;;;;;;-4.15;100.00;101938.59;5027005;28;20037;-76
2024/01/09 07:32:53;;;;;;;0.45;0.45;;;;;;;-4.74;100.00;101940.44;5016644;28;20072;-77
2024/01/09 07:35:18;;;;;;;0.40;0.40;;;;;;;-4.47;100.00;101907.72;5010053;28;20607;-76
2024/01/09 07:37:44;;;;;;;1.25;1.25;;;;;;;-4.02;100.00;101950.78;5034880;28;20037;-76
2024/01/09 07:40:10;;;;;;;0.43;0.43;;;;;;;-4.72;100.00;101938.91;5027969;28;20054;-77
2024/01/09 07:42:35;;;;;;;0.30;0.30;;;;;;;-4.85;100.00;101843.03;5036432;28;20060;-76
2024/01/09 07:45:02;;;;;;;0.32;0.32;;;;;;;-5.33;100.00;101795.47;5038860;28;20366;-75
2024/01/09 07:47:28;;;;;;;2.60;2.47;;;;;;;-4.49;100.00;101924.63;5008574;28;20831;-76
2024/01/09 07:49:53;;;;;;;0.40;0.40;;;;;;;-4.74;100.00;101932.78;5024894;28;20034;-77
2024/01/09 07:52:19;;;;;;;3.75;3.60;;;;;;;-4.59;100.00;101928.09;5023075;28;20115;-76
2024/01/09 07:54:45;;;;;;;9.18;8.38;;;;;;;-4.97;100.00;101837.75;5026382;28;20053;-77
2024/01/09 07:57:11;;;;;;;0.50;0.50;;;;;;;-4.90;100.00;101834.94;5037283;28;20072;-75
2024/01/09 07:59:36;;;;;;;0.40;0.32;;;;;;;-5.37;100.00;101809.66;5019991;28;20037;-77
2024/01/09 08:02:02;;;;;;;0.35;0.35;;;;;;;-4.31;100.00;101938.06;5036338;28;20040;-78
2024/01/09 08:04:28;;;;;;;0.40;0.40;;;;;;;-4.43;100.00;101926.81;5035832;28;20492;-76
2024/01/09 08:06:54;;;;;;;0.55;0.55;;;;;;;-5.21;100.00;101803.31;5025523;28;20042;-76
2024/01/09 08:09:20;;;;;;;2.35;2.25;;;;;;;-4.93;100.00;101880.78;5028797;28;20036;-76
2024/01/09 08:11:46;;;;;;;0.50;0.50;;;;;;;-4.61;100.00;101921.00;5019118;28;20171;-76
2024/01/09 08:14:13;;;;;;;0.40;0.40;;;;;;;-4.64;100.00;101910.50;5025838;28;20341;-77
2024/01/09 08:16:39;;;;;;;0.60;0.60;;;;;;;-5.45;100.00;101759.53;5033165;28;20030;-77
2024/01/09 08:19:04;;;;;;;1.63;1.58;;;;;;;-4.35;100.00;101951.41;5034045;28;20046;-76
2024/01/09 08:21:31;;;;;;;0.43;0.43;;;;;;;-4.57;100.00;101946.13;5026916;28;20456;-75
2024/01/09 08:23:57;;;;;;;0.50;0.50;;;;;;;-5.20;100.00;101854.59;5032716;28;20052;-76
2024/01/09 08:26:22;;;;;;;0.40;0.40;;;;;;;-5.21;100.00;101888.63;5026757;28;20087;-78
2024/01/09 08:28:48;;;;;;;0.60;0.60;;;;;;;-4.53;100.00;102002.84;5028042;28;20048;-76
2024/01/09 08:31:14;;;;;;;2.33;2.00;;;;;;;-5.48;100.00;101951.03;5029484;28;20075;-76
2024/01/09 08:33:39;;;;;;;0.80;0.80;;;;;;;-5.21;100.00;101962.81;5031676;28;20042;-77
2024/01/09 08:36:05;;;;;;;0.50;0.50;;;;;;;-5.95;100.00;101897.50;5023929;28;20149;-76
2024/01/09 08:38:31;;;;;;;0.40;0.40;;;;;;;-5.60;100.00;101911.59;5032421;28;20048;-76
2024/01/09 08:40:56;;;;;;;0.85;0.85;;;;;;;-5.21;100.00;102002.84;5036861;28;20124;-76
2024/01/09 08:43:22;;;;;;;0.52;0.52;;;;;;;-5.07;100.00;102019.44;5013844;28;20037;-76
2024/01/09 08:45:49;;;;;;;0.32;0.32;;;;;;;-5.01;100.00;102041.34;5034448;28;20045;-77
2024/01/09 08:48:15;;;;;;;0.40;0.40;;;;;;;-6.05;100.00;101963.84;5025909;28;20049;-76
2024/01/09 08:50:41;;;;;;;0.85;0.85;;;;;;;-5.32;100.00;101989.09;5020621;28;20401;-76
2024/01/09 08:53:07;;;;;;;0.40;0.40;;;;;;;-5.41;100.00;101957.59;5024913;28;20079;-76
2024/01/09 08:55:33;;;;;;;0.40;0.40;;;;;;;-5.27;100.00;101954.59;5035298;28;20043;-75
2024/01/09 08:57:59;;;;;;;0.40;0.40;;;;;;;-4.75;100.00;102022.28;5024882;28;20057;-77
2024/01/09 09:00:24;;;;;;;0.47;0.47;;;;;;;-5.15;100.00;102069.91;5034891;28;20037;-76
2024/01/09 09:02:50;;;;;;;1.63;1.52;;;;;;;-5.53;100.00;101954.84;5015078;28;20132;-75
2024/01/09 09:05:16;;;;;;;0.40;0.40;;;;;;;-5.32;100.00;102043.72;5021055;28;20049;-76
2024/01/09 09:07:42;;;;;;;0.32;0.30;;;;;;;-4.54;100.00;102074.44;5026663;28;20677;-76
2024/01/09 09:10:07;;;;;;;0.40;0.40;;;;;;;-5.03;100.00;101972.84;5040117;28;20118;-76
2024/01/09 09:12:33;;;;;;;1.77;1.67;;;;;;;-5.65;100.00;101946.97;5034474;28;20050;-77
2024/01/09 09:15:01;;;;;;;0.40;0.40;;;;;;;-5.40;100.00;102051.47;5007935;28;20045;-76
2024/01/09 09:17:26;;;;;;;1.17;1.17;;;;;;;-5.42;100.00;101946.47;5036130;28;20037;-76
2024/01/09 09:19:52;;;;;;;0.50;0.50;;;;;;;-5.99;100.00;101961.88;5035456;28;20029;-76
2024/01/09 09:22:18;;;;;;;0.40;0.40;;;;;;;-5.48;100.00;102052.44;5021846;28;20502;-76
2024/01/09 09:24:44;;;;;;;0.40;0.40;;;;;;;-5.80;100.00;101976.28;5012230;28;20053;-76
2024/01/09 09:27:09;;;;;;;0.40;0.40;;;;;;;-5.27;100.00;102082.50;5026079;28;20054;-76
2024/01/09 09:29:35;;;;;;;0.52;0.52;;;;;;;-4.88;100.00;102069.81;5013969;28;20128;-77
2024/01/09 09:32:00;;;;;;;0.45;0.45;;;;;;;-5.27;100.00;102096.94;5033414;28;20033;-77
2024/01/09 09:34:26;;;;;;;0.40;0.40;;;;;;;-5.52;100.00;101987.34;5014888;28;20041;-76
2024/01/09 09:36:52;;;;;;;7.63;7.30;;;;;;;-4.57;100.00;102077.63;5033019;28;20041;-76
2024/01/09 09:39:17;;;;;;;0.40;0.40;;;;;;;-4.86;100.00;102005.97;5025480;28;20509;-77
2024/01/09 09:41:47;;;;;;;0.57;0.57;;;;;;;-5.25;100.00;101977.75;5031803;28;20045;-77
2024/01/09 09:44:14;;;;;;;0.50;0.50;;;;;;;-5.29;100.00;101997.06;5016889;28;20096;-76
2024/01/09 09:46:41;;;;;;;0.55;0.55;;;;;;;-5.01;100.00;102109.53;5028211;28;20040;-76
2024/01/09 09:49:08;;;;;;;0.40;0.40;;;;;;;-5.16;100.00;102068.13;5026639;28;20057;-77
2024/01/09 09:51:36;;;;;;;0.63;0.63;;;;;;;-5.46;100.00;101981.88;5029112;28;20053;-77
2024/01/09 09:54:02;;;;;;;1.25;1.20;;;;;;;-5.59;100.00;101957.75;5024264;28;20075;-77
2024/01/09 09:56:28;;;;;;;0.88;0.88;;;;;;;-5.08;100.00;102028.78;5027027;28;20208;-76
2024/01/09 09:58:54;;;;;;;19.58;17.92;;;;;;;-5.60;100.00;101965.28;5039149;28;20033;-77
2024/01/09 10:01:23;;;;;;;3.97;3.78;;;;;;;-4.88;100.00;101998.13;5032314;28;20040;-77
2024/01/09 10:04:06;;;;;;;2.42;1.40;;;;;;;-4.85;100.00;102047.81;5038178;28;20068;-76
2024/01/09 10:06:33;;;;;;;0.47;0.47;;;;;;;-5.44;100.00;101962.44;5031712;28;20390;-76
2024/01/09 10:09:03;;;;;;;0.65;0.65;;;;;;;-4.43;100.00;102036.94;5031550;28;20053;-77
2024/01/09 10:11:31;;;;;;;0.40;0.40;;;;;;;-4.24;100.00;102050.56;5034105;28;20060;-77
2024/01/09 10:13:57;;;;;;;1.27;1.20;;;;;;;-4.55;100.00;102037.69;5027601;28;20033;-77
2024/01/09 10:16:23;;;;;;;0.40;0.40;;;;;;;-3.98;100.00;102029.75;5033226;28;20060;-77
2024/01/09 10:18:48;;;;;;;0.43;0.43;;;;;;;-4.46;100.00;101918.09;5040926;28;20744;-77
2024/01/09 10:21:14;;;;;;;0.40;0.40;;;;;;;-4.88;100.00;101912.78;5040340;28;20437;-79
2024/01/09 10:23:40;;;;;;;0.50;0.50;;;;;;;-4.66;100.00;101979.50;5037211;28;20041;-77
2024/01/09 10:26:14;;;;;;;2.33;2.20;;;;;;;-4.05;100.00;102043.72;5034462;28;20049;-77
2024/01/09 10:28:41;;;;;;;4.45;4.25;;;;;;;-5.10;100.00;101940.75;5032786;28;20045;-77
2024/01/09 10:31:08;;;;;;;0.40;0.40;;;;;;;-5.30;100.00;101904.06;5036594;28;20115;-76
2024/01/09 10:33:37;;;;;;;0.40;0.40;;;;;;;-4.69;100.00;102016.00;5021274;28;20053;-76
2024/01/09 10:36:03;;;;;;;0.30;0.30;;;;;;;-4.47;100.00;102026.47;5029962;28;20057;-77
2024/01/09 10:38:29;;;;;;;0.60;0.60;;;;;;;-3.84;100.00;102013.84;5026204;28;20108;-76
2024/01/09 10:40:57;;;;;;;0.40;0.40;;;;;;;-3.40;100.00;102039.69;5029422;28;20583;-77
2024/01/09 10:43:26;;;;;;;9.00;8.43;;;;;;;-4.72;100.00;101955.97;5022913;28;20504;-75
2024/01/09 10:45:52;;;;;;;8.68;8.07;;;;;;;-4.21;100.00;102032.91;5012447;28;20057;-76
2024/01/09 10:48:22;;;;;;;0.30;0.30;;;;;;;-4.44;100.00;102027.50;5025107;28;20152;-77
2024/01/09 10:50:51;;;;;;;0.43;0.43;;;;;;;-4.57;100.00;101981.97;5017789;28;20045;-77
2024/01/09 10:53:20;;;;;;;0.57;0.57;;;;;;;-4.34;100.00;102010.44;5012420;28;20124;-76
2024/01/09 10:55:49;;;;;;;0.40;0.40;;;;;;;-4.44;100.00;101979.72;5032733;28;20039;-77
2024/01/09 10:58:15;;;;;;;0.40;0.40;;;;;;;-4.11;100.00;102043.19;5028079;28;20632;-76
2024/01/09 11:00:41;;;;;;;0.65;0.65;;;;;;;-3.71;100.00;102026.00;5029876;28;20079;-77
2024/01/09 11:03:07;;;;;;;3.50;3.33;;;;;;;-4.11;100.00;102014.09;5038102;28;20041;-76
2024/01/09 11:05:33;;;;;;;13.02;11.65;;;;;;;-4.13;100.00;102025.88;5033584;28;20465;-76
2024/01/09 11:08:05;;;;;;;1.45;1.35;;;;;;;-3.93;100.00;101999.38;5034573;28;20120;-77
2024/01/09 11:10:32;;;;;;;7.88;7.43;;;;;;;-4.08;100.00;101999.84;5027309;28;20408;-75